Time;durP1;ratioP1;P1;durP2;ratioP2;P2;SDS_P1;SDS_P2;PMS_P1;PMS_P2;Temp;Humidity;BMP_temperature;BMP_pressure;BME280_temperature;BME280_humidity;BME280_pressure;Samples;Min_cycle;Max_cycle;Signal;HPM_P1;HPM_P2
2023/10/01 00:00:08;;;;;;;18.45;12.85;;;14.80;99.90;;;;;;5066917;28;20083;-74
2023/10/01 00:02:34;;;;;;;18.88;12.88;;;14.90;99.90;;;;;;5066660;28;20058;-73
2023/10/01 00:05:00;;;;;;;19.55;12.10;;;14.90;99.90;;;;;;5065830;28;20056;-74
2023/10/01 00:07:28;;;;;;;20.45;12.65;;;14.90;99.90;;;;;;5049165;28;20049;-74
2023/10/01 00:09:55;;;;;;;19.35;12.15;;;14.90;99.90;;;;;;5047838;28;20053;-74
2023/10/01 00:12:23;;;;;;;20.90;12.80;;;14.90;99.90;;;;;;5066890;28;20071;-74
2023/10/01 00:14:52;;;;;;;18.13;12.70;;;14.90;99.90;;;;;;5065750;28;20123;-73
2023/10/01 00:17:22;;;;;;;17.48;12.20;;;14.80;99.90;;;;;;5064651;28;20040;-73
2023/10/01 00:19:48;;;;;;;18.15;12.15;;;14.70;99.90;;;;;;5067018;28;20056;-74
2023/10/01 00:22:14;;;;;;;19.15;11.95;;;14.70;99.90;;;;;;5068161;28;20108;-74
2023/10/01 00:24:41;;;;;;;16.83;12.00;;;14.60;99.90;;;;;;5064371;28;20095;-73
2023/10/01 00:27:09;;;;;;;17.92;11.40;;;14.60;99.90;;;;;;5069008;28;20661;-73
2023/10/01 00:29:34;;;;;;;23.38;12.68;;;14.60;99.90;;;;;;5069520;28;20052;-73
2023/10/01 00:32:00;;;;;;;19.35;11.75;;;14.60;99.90;;;;;;5050786;28;20319;-74
2023/10/01 00:34:26;;;;;;;21.52;12.10;;;14.50;99.90;;;;;;5065803;28;20120;-73
2023/10/01 00:36:52;;;;;;;18.83;12.02;;;14.50;99.90;;;;;;5069355;28;20122;-74
2023/10/01 00:39:18;;;;;;;16.95;11.82;;;14.50;99.90;;;;;;5065712;28;20044;-74
2023/10/01 00:41:45;;;;;;;19.23;11.70;;;14.50;99.90;;;;;;5051532;28;20123;-74
2023/10/01 00:44:12;;;;;;;19.63;12.20;;;14.50;99.90;;;;;;5049055;28;20325;-74
2023/10/01 00:46:37;;;;;;;19.02;12.10;;;14.50;99.90;;;;;;5068534;28;20078;-73
2023/10/01 00:49:05;;;;;;;19.27;12.68;;;14.50;99.90;;;;;;5066234;28;20051;-73
2023/10/01 00:51:32;;;;;;;19.00;11.95;;;14.50;99.90;;;;;;5065904;28;20041;-73
2023/10/01 00:54:02;;;;;;;19.42;12.80;;;14.50;99.90;;;;;;5066754;28;20049;-74
2023/10/01 00:56:28;;;;;;;20.60;12.07;;;14.50;99.90;;;;;;5063253;28;20609;-74
2023/10/01 00:58:53;;;;;;;17.13;11.90;;;14.50;99.90;;;;;;5064970;28;20241;-73
2023/10/01 01:01:23;;;;;;;19.23;12.55;;;14.50;99.90;;;;;;5066769;28;20474;-74
2023/10/01 01:03:55;;;;;;;20.73;12.90;;;14.40;99.90;;;;;;5065866;28;20086;-74
2023/10/01 01:06:23;;;;;;;20.27;13.48;;;14.40;99.90;;;;;;5067285;28;20048;-73
2023/10/01 01:08:54;;;;;;;21.33;13.32;;;14.40;99.90;;;;;;5063736;28;20064;-73
2023/10/01 01:11:21;;;;;;;18.67;12.70;;;14.40;99.90;;;;;;5067870;28;20043;-73
2023/10/01 01:13:49;;;;;;;21.67;13.25;;;14.30;99.90;;;;;;5064325;28;20103;-73
2023/10/01 01:16:19;;;;;;;20.27;12.90;;;14.30;99.90;;;;;;5065897;28;20484;-74
2023/10/01 01:18:46;;;;;;;19.67;13.30;;;14.30;99.90;;;;;;5063397;28;20100;-74
2023/10/01 01:21:16;;;;;;;20.23;13.82;;;14.30;99.90;;;;;;5065140;28;20136;-73
2023/10/01 01:23:42;;;;;;;20.25;13.25;;;14.30;99.90;;;;;;5066101;28;20554;-74
2023/10/01 01:26:11;;;;;;;17.65;12.93;;;14.30;99.90;;;;;;5047812;28;20091;-74
2023/10/01 01:28:37;;;;;;;22.75;13.63;;;14.30;99.90;;;;;;5067983;28;20067;-74
2023/10/01 01:31:04;;;;;;;23.63;13.68;;;14.30;99.90;;;;;;5063401;28;20527;-73
2023/10/01 01:33:44;;;;;;;19.67;13.15;;;14.20;99.90;;;;;;5068197;28;20045;-73
2023/10/01 01:36:10;;;;;;;20.95;13.45;;;14.20;99.90;;;;;;5064913;28;20074;-73
2023/10/01 01:38:38;;;;;;;18.90;13.43;;;14.20;99.90;;;;;;5050205;28;20056;-74
2023/10/01 01:41:06;;;;;;;19.17;14.00;;;14.10;99.90;;;;;;5065160;28;20488;-74
2023/10/01 01:43:32;;;;;;;20.15;14.63;;;14.10;99.90;;;;;;5047295;28;20135;-73
2023/10/01 01:46:08;;;;;;;21.92;13.70;;;14.10;99.90;;;;;;5068437;28;20579;-73
2023/10/01 01:48:37;;;;;;;21.73;13.98;;;14.10;99.90;;;;;;5068097;28;20067;-73
2023/10/01 01:51:04;;;;;;;21.02;14.40;;;14.10;99.90;;;;;;5069435;28;20120;-74
2023/10/01 01:53:34;;;;;;;17.45;13.43;;;14.10;99.90;;;;;;5069315;28;20108;-73
2023/10/01 01:56:05;;;;;;;22.67;14.07;;;14.20;99.90;;;;;;5067700;28;20056;-73
2023/10/01 01:58:35;;;;;;;22.60;14.48;;;14.20;99.90;;;;;;5069665;28;20048;-73
2023/10/01 02:01:23;;;;;;;20.58;14.95;;;14.30;99.90;;;;;;5068540;28;20086;-74
2023/10/01 02:03:51;;;;;;;19.83;14.07;;;14.30;99.90;;;;;;5070051;28;20067;-74
2023/10/01 02:06:27;;;;;;;21.52;13.73;;;14.30;99.90;;;;;;5068605;28;20445;-73
2023/10/01 02:09:00;;;;;;;23.13;13.77;;;14.30;99.90;;;;;;5070370;28;20044;-73
2023/10/01 02:11:29;;;;;;;23.50;15.02;;;14.30;99.90;;;;;;5070888;28;20044;-73
2023/10/01 02:13:57;;;;;;;21.02;14.35;;;14.30;99.90;;;;;;5068625;28;20048;-74
2023/10/01 02:21:49;;;;;;;17.65;13.75;;;14.40;99.90;;;;;;5068945;28;20052;-73
2023/10/01 02:24:22;;;;;;;19.35;13.68;;;14.40;99.90;;;;;;5068754;28;20492;-73
2023/10/01 02:26:59;;;;;;;22.75;14.15;;;14.40;99.90;;;;;;5064643;28;20621;-73
2023/10/01 02:29:25;;;;;;;22.20;14.30;;;14.40;99.90;;;;;;5070407;28;20048;-73
2023/10/01 02:31:57;;;;;;;20.35;15.15;;;14.40;99.90;;;;;;5053446;28;20097;-74
2023/10/01 02:34:24;;;;;;;;;;;14.50;99.90;;;;;;5067975;28;20043;-74
2023/10/01 02:36:51;;;;;;;20.60;15.27;;;14.40;99.90;;;;;;5071503;28;19928;-74
2023/10/01 02:39:21;;;;;;;20.52;14.52;;;14.40;99.90;;;;;;5050807;28;20064;-73
2023/10/01 02:44:40;;;;;;;20.02;13.93;;;14.40;99.90;;;;;;5069324;28;20389;-73
2023/10/01 02:47:16;;;;;;;20.15;15.15;;;14.40;99.90;;;;;;5069437;28;20149;-73
2023/10/01 02:49:49;;;;;;;19.85;14.20;;;14.40;99.90;;;;;;5068768;28;20090;-74
2023/10/01 02:52:25;;;;;;;20.75;14.73;;;14.40;99.90;;;;;;5068784;28;20104;-74
2023/10/01 02:54:54;;;;;;;21.48;14.77;;;14.50;99.90;;;;;;5071887;28;20508;-74
2023/10/01 02:57:23;;;;;;;22.15;15.27;;;14.50;99.90;;;;;;5065726;28;20040;-74
2023/10/01 03:02:38;;;;;;;23.67;15.65;;;14.40;99.90;;;;;;5068214;28;20131;-74
2023/10/01 03:05:16;;;;;;;22.73;15.48;;;14.50;99.90;;;;;;5065289;28;20048;-73
2023/10/01 03:07:45;;;;;;;19.67;15.20;;;14.50;99.90;;;;;;5067997;28;20524;-74
2023/10/01 03:10:16;;;;;;;23.27;15.32;;;14.50;99.90;;;;;;5066863;28;20087;-74
2023/10/01 03:12:42;;;;;;;20.75;15.48;;;14.50;99.90;;;;;;5067572;28;20056;-74
2023/10/01 03:17:56;;;;;;;20.58;15.45;;;14.50;99.90;;;;;;5068331;28;20044;-74
2023/10/01 03:23:25;;;;;;;24.48;16.80;;;14.50;99.90;;;;;;5068817;28;20044;-73
2023/10/01 03:25:58;;;;;;;22.50;17.08;;;14.50;99.90;;;;;;5068630;28;20063;-73
2023/10/01 03:28:28;;;;;;;23.38;16.52;;;14.50;99.90;;;;;;5071243;28;20055;-74
2023/10/01 03:31:06;;;;;;;23.38;16.75;;;14.50;99.90;;;;;;5066215;28;20216;-74
2023/10/01 03:33:39;;;;;;;24.08;15.82;;;14.50;99.90;;;;;;5072436;28;20055;-74
2023/10/01 03:36:10;;;;;;;25.38;17.00;;;14.50;99.90;;;;;;5067491;28;20057;-74
2023/10/01 03:38:47;;;;;;;21.80;16.40;;;14.50;99.90;;;;;;5066936;28;20563;-74
2023/10/01 03:41:21;;;;;;;20.98;16.65;;;14.50;99.90;;;;;;5064825;28;20851;-74
2023/10/01 03:43:50;;;;;;;26.27;16.50;;;14.50;99.90;;;;;;5064775;28;20056;-74
2023/10/01 03:51:52;;;;;;;25.27;16.67;;;14.50;99.90;;;;;;5066917;28;20048;-73
2023/10/01 03:57:11;;;;;;;23.33;16.27;;;14.60;99.90;;;;;;5067383;28;20479;-77
2023/10/01 03:59:38;;;;;;;25.10;16.15;;;14.50;99.90;;;;;;5066168;28;20510;-74
2023/10/01 04:02:26;;;;;;;25.20;16.23;;;14.60;99.90;;;;;;5065218;28;20111;-73
2023/10/01 04:04:58;;;;;;;25.52;17.58;;;14.60;99.90;;;;;;5056431;28;20763;-73
2023/10/01 04:07:40;;;;;;;22.88;16.35;;;14.50;99.90;;;;;;5055934;28;20044;-73
2023/10/01 04:10:14;;;;;;;25.23;17.10;;;14.60;99.90;;;;;;5058982;28;20049;-74
2023/10/01 04:13:27;;;;;;;24.60;16.70;;;14.60;99.90;;;;;;5070289;28;20122;-74
2023/10/01 04:15:35;;;;;;;22.35;15.63;;;14.60;99.90;;;;;;5054535;28;20052;-74
2023/10/01 04:20:48;;;;;;;20.08;15.40;;;14.50;99.90;;;;;;5071852;28;20087;-75
2023/10/01 04:23:23;;;;;;;19.38;15.20;;;14.50;99.90;;;;;;5075924;28;20053;-75
2023/10/01 04:25:54;;;;;;;24.92;16.48;;;14.50;99.90;;;;;;5075470;28;20091;-75
2023/10/01 04:28:20;;;;;;;25.37;16.27;;;14.50;99.90;;;;;;5076521;28;20063;-74
2023/10/01 04:30:52;;;;;;;25.42;16.45;;;14.50;99.90;;;;;;5056961;28;20283;-75
2023/10/01 04:33:19;;;;;;;;;;;14.50;99.90;;;;;;5076122;28;20049;-75
2023/10/01 04:35:51;;;;;;;19.80;14.60;;;14.50;99.90;;;;;;5074839;28;19936;-75
2023/10/01 04:38:21;;;;;;;;;;;14.50;99.90;;;;;;5069785;28;20052;-75
2023/10/01 04:40:48;;;;;;;20.30;14.80;;;14.50;99.90;;;;;;5075277;28;19934;-75
2023/10/01 04:43:20;;;;;;;20.80;14.82;;;14.50;99.90;;;;;;5075112;28;20048;-75
2023/10/01 04:45:46;;;;;;;;;;;14.50;99.90;;;;;;5076327;28;20052;-73
2023/10/01 04:48:16;;;;;;;20.67;13.93;;;14.50;99.90;;;;;;5053311;28;19925;-74
2023/10/01 04:50:44;;;;;;;21.60;15.13;;;14.50;99.90;;;;;;5076485;28;20052;-75
2023/10/01 04:53:13;;;;;;;21.75;14.82;;;14.50;99.90;;;;;;5068768;28;20052;-74
2023/10/01 04:55:43;;;;;;;21.40;14.38;;;14.60;99.90;;;;;;5068493;28;20071;-74
2023/10/01 04:58:12;;;;;;;23.30;14.95;;;14.50;99.90;;;;;;5073077;28;20036;-74
2023/10/01 05:00:40;;;;;;;21.77;13.98;;;14.60;99.90;;;;;;5072904;28;20066;-74
2023/10/01 05:03:06;;;;;;;23.55;14.80;;;14.60;99.90;;;;;;5068063;28;20103;-74
2023/10/01 05:05:37;;;;;;;20.48;14.60;;;14.60;99.90;;;;;;5062553;28;20139;-74
2023/10/01 05:08:07;;;;;;;21.58;13.70;;;14.60;99.90;;;;;;5072940;28;20072;-74
2023/10/01 05:10:50;;;;;;;22.35;15.07;;;14.60;99.90;;;;;;5059994;28;20055;-75
2023/10/01 05:13:20;;;;;;;20.40;13.60;;;14.60;99.90;;;;;;5063450;28;20068;-74
2023/10/01 05:15:49;;;;;;;21.88;14.23;;;14.60;99.90;;;;;;5073101;28;20045;-74
2023/10/01 05:18:17;;;;;;;22.65;13.93;;;14.50;99.90;;;;;;5073647;28;20048;-74
2023/10/01 05:20:43;;;;;;;18.20;13.43;;;14.60;99.90;;;;;;5071692;28;20056;-75
2023/10/01 05:23:09;;;;;;;22.73;13.32;;;14.60;99.90;;;;;;5067431;28;20104;-74
2023/10/01 05:25:35;;;;;;;21.23;12.77;;;14.60;99.90;;;;;;5069174;28;20076;-75
2023/10/01 05:28:03;;;;;;;21.48;13.32;;;14.60;99.90;;;;;;5068225;28;20045;-74
2023/10/01 05:30:42;;;;;;;19.90;13.35;;;14.60;99.90;;;;;;5075615;28;20588;-76
2023/10/01 05:33:12;;;;;;;20.45;12.75;;;14.60;99.90;;;;;;5076397;28;20068;-74
2023/10/01 05:35:44;;;;;;;22.70;13.15;;;14.60;99.90;;;;;;5067107;28;20053;-72
2023/10/01 05:38:10;;;;;;;19.70;12.57;;;14.60;99.90;;;;;;5072758;28;20087;-73
2023/10/01 05:40:40;;;;;;;20.05;13.40;;;14.60;99.90;;;;;;5074167;28;20049;-72
2023/10/01 05:43:14;;;;;;;18.20;12.60;;;14.60;99.90;;;;;;5077377;28;20086;-73
2023/10/01 05:45:50;;;;;;;20.92;12.93;;;14.60;99.90;;;;;;5073687;28;20059;-74
2023/10/01 05:48:19;;;;;;;21.55;13.40;;;14.50;99.90;;;;;;5075088;28;20068;-73
2023/10/01 05:50:46;;;;;;;22.95;13.70;;;14.50;99.90;;;;;;5080167;28;20045;-74
2023/10/01 05:53:13;;;;;;;19.33;13.32;;;14.50;99.90;;;;;;5077861;28;21698;-73
2023/10/01 05:55:43;;;;;;;22.20;13.45;;;14.50;99.90;;;;;;5076684;28;20489;-74
2023/10/01 05:58:13;;;;;;;22.10;13.65;;;14.50;99.90;;;;;;5076359;28;20036;-74
2023/10/01 06:00:45;;;;;;;19.33;13.25;;;14.50;99.90;;;;;;5076517;28;20117;-73
2023/10/01 06:03:18;;;;;;;21.02;12.68;;;14.40;99.90;;;;;;5067417;28;20495;-73
2023/10/01 06:05:50;;;;;;;21.42;13.88;;;14.40;99.90;;;;;;5076848;28;20063;-73
2023/10/01 06:08:25;;;;;;;20.67;13.73;;;14.40;99.90;;;;;;5077096;28;20116;-74
2023/10/01 06:13:29;;;;;;;19.90;13.45;;;14.40;99.90;;;;;;5068847;28;20048;-74
2023/10/01 06:16:11;;;;;;;21.92;13.63;;;14.40;99.90;;;;;;5069458;28;20520;-72
2023/10/01 06:18:41;;;;;;;20.52;13.70;;;14.40;99.90;;;;;;5069958;28;20047;-73
2023/10/01 06:21:09;;;;;;;22.40;13.23;;;14.40;99.90;;;;;;5067432;28;20520;-73
2023/10/01 06:23:49;;;;;;;20.70;13.30;;;14.40;99.90;;;;;;5069392;28;20049;-73
2023/10/01 06:26:42;;;;;;;19.40;12.48;;;14.40;99.90;;;;;;5061913;28;20063;-73
2023/10/01 06:29:10;;;;;;;18.60;11.88;;;14.40;99.90;;;;;;5078647;28;20044;-75
2023/10/01 06:32:00;;;;;;;19.65;12.52;;;14.50;99.90;;;;;;5075143;28;20100;-73
2023/10/01 06:34:31;;;;;;;18.55;11.80;;;14.50;99.90;;;;;;5065799;28;20182;-73
2023/10/01 06:37:01;;;;;;;19.20;11.85;;;14.50;99.90;;;;;;5074315;28;20077;-73
2023/10/01 06:39:30;;;;;;;21.15;11.65;;;14.50;99.90;;;;;;5063365;28;20559;-74
2023/10/01 06:44:41;;;;;;;19.70;11.02;;;14.60;99.90;;;;;;5077847;28;20049;-73
2023/10/01 06:47:14;;;;;;;18.52;10.90;;;14.50;99.90;;;;;;5075847;28;20052;-73
2023/10/01 06:49:57;;;;;;;18.52;11.38;;;14.60;99.90;;;;;;5069286;28;20083;-73
2023/10/01 06:52:28;;;;;;;24.27;11.35;;;14.60;99.90;;;;;;5072099;28;20082;-73
2023/10/01 06:54:55;;;;;;;20.40;11.80;;;14.60;99.90;;;;;;5077365;28;20049;-73
2023/10/01 06:57:23;;;;;;;19.35;11.32;;;14.70;99.90;;;;;;5073888;28;20085;-73
2023/10/01 06:59:49;;;;;;;21.35;11.93;;;14.60;99.90;;;;;;5068577;28;20050;-73
2023/10/01 07:02:15;;;;;;;21.95;11.80;;;14.60;99.90;;;;;;5065145;28;20059;-72
2023/10/01 07:04:41;;;;;;;21.23;12.30;;;14.70;99.90;;;;;;5066841;28;20044;-73
2023/10/01 07:07:20;;;;;;;19.25;11.60;;;14.70;99.90;;;;;;5071940;28;20044;-73
2023/10/01 07:09:49;;;;;;;20.80;12.45;;;14.60;99.90;;;;;;5060492;28;20110;-72
2023/10/01 07:12:17;;;;;;;22.27;13.15;;;14.60;99.90;;;;;;5072344;28;20044;-73
2023/10/01 07:14:43;;;;;;;21.00;11.23;;;14.60;99.90;;;;;;5055006;28;20052;-72
2023/10/01 07:17:18;;;;;;;23.63;12.73;;;14.60;99.90;;;;;;5074670;28;20123;-73
2023/10/01 07:19:45;;;;;;;21.40;12.82;;;14.60;99.90;;;;;;5059540;28;20049;-73
2023/10/01 07:22:14;;;;;;;21.55;12.50;;;14.60;99.90;;;;;;5070424;28;20048;-73
2023/10/01 07:24:43;;;;;;;21.50;12.80;;;14.60;99.90;;;;;;5076787;28;20127;-73
2023/10/01 07:27:11;;;;;;;20.77;12.25;;;14.60;99.90;;;;;;5072377;28;20044;-73
2023/10/01 07:29:41;;;;;;;20.85;11.70;;;14.60;99.90;;;;;;5076177;28;20039;-73
2023/10/01 07:32:14;;;;;;;22.45;11.73;;;14.60;99.90;;;;;;5077368;28;20056;-72
2023/10/01 07:34:48;;;;;;;18.92;11.38;;;14.70;99.90;;;;;;5066575;28;20067;-73
2023/10/01 07:37:25;;;;;;;22.40;11.60;;;14.60;99.90;;;;;;5065483;28;20047;-73
2023/10/01 07:40:08;;;;;;;18.77;11.45;;;14.70;99.90;;;;;;5059186;28;20699;-73
2023/10/01 07:42:46;;;;;;;18.30;11.50;;;14.70;99.90;;;;;;5073064;28;20055;-72
2023/10/01 07:45:17;;;;;;;20.75;11.93;;;14.80;99.90;;;;;;5063396;28;20467;-72
2023/10/01 07:47:44;;;;;;;19.95;11.40;;;14.80;99.90;;;;;;5065687;28;20104;-73
2023/10/01 07:50:13;;;;;;;19.85;11.73;;;14.90;99.90;;;;;;5060393;28;20068;-72
2023/10/01 07:52:40;;;;;;;20.85;11.93;;;14.90;99.90;;;;;;5071178;28;20117;-73
2023/10/01 07:55:35;;;;;;;20.10;11.75;;;14.90;99.90;;;;;;5068920;28;20115;-73
2023/10/01 07:58:22;;;;;;;20.30;11.82;;;14.90;99.90;;;;;;5076643;28;20123;-72
2023/10/01 08:00:58;;;;;;;20.75;12.02;;;15.00;99.90;;;;;;5073470;28;20078;-72
2023/10/01 08:05:57;;;;;;;19.80;12.68;;;15.00;99.90;;;;;;5076936;28;20053;-72
2023/10/01 08:08:47;;;;;;;20.98;12.20;;;15.00;99.90;;;;;;5070785;28;20045;-71
2023/10/01 08:13:57;;;;;;;18.70;11.15;;;15.20;99.90;;;;;;5072599;28;20079;-72
2023/10/01 08:16:24;;;;;;;23.48;11.93;;;15.30;99.90;;;;;;5063419;28;20104;-72
2023/10/01 08:18:57;;;;;;;21.98;11.52;;;15.30;99.90;;;;;;5044032;28;20045;-72
2023/10/01 08:21:36;;;;;;;20.88;11.27;;;15.30;99.90;;;;;;5070674;28;20075;-73
2023/10/01 08:24:13;;;;;;;17.73;10.90;;;15.30;99.90;;;;;;5050261;28;20122;-72
2023/10/01 08:26:49;;;;;;;20.67;11.27;;;15.30;99.90;;;;;;5067218;28;20057;-72
2023/10/01 08:29:15;;;;;;;17.83;10.15;;;15.30;99.90;;;;;;5066596;28;20051;-72
2023/10/01 08:32:07;;;;;;;17.48;10.43;;;15.30;99.90;;;;;;5064583;28;20048;-72
2023/10/01 08:34:28;;;;;;;18.83;10.57;;;15.40;99.90;;;;;;5069336;28;20056;-73
2023/10/01 08:37:06;;;;;;;18.38;9.80;;;15.40;99.90;;;;;;5063524;28;20044;-72
2023/10/01 08:39:35;;;;;;;17.10;10.23;;;15.50;99.90;;;;;;5063700;28;20068;-72
2023/10/01 08:42:08;;;;;;;15.57;9.68;;;15.60;99.90;;;;;;5067624;28;20048;-72
2023/10/01 08:44:54;;;;;;;16.02;9.60;;;15.70;99.90;;;;;;5066561;28;20080;-72
2023/10/01 08:47:31;;;;;;;18.13;10.43;;;15.80;99.90;;;;;;5070366;28;20041;-72
2023/10/01 08:50:17;;;;;;;15.30;9.30;;;15.80;99.90;;;;;;5051931;28;20060;-72
2023/10/01 08:52:56;;;;;;;19.85;10.10;;;15.90;99.90;;;;;;5065355;28;20052;-73
2023/10/01 08:55:39;;;;;;;18.92;10.13;;;16.00;99.90;;;;;;5073104;28;20401;-73
2023/10/01 09:00:52;;;;;;;15.68;9.55;;;16.10;99.90;;;;;;5069809;28;20106;-72
2023/10/01 09:03:34;;;;;;;17.35;9.75;;;16.10;99.90;;;;;;5057094;28;20052;-73
2023/10/01 09:06:24;;;;;;;20.55;9.63;;;16.20;99.90;;;;;;5075591;28;20036;-73
2023/10/01 09:08:54;;;;;;;16.33;9.50;;;16.20;99.90;;;;;;5067762;28;20376;-72
2023/10/01 09:11:35;;;;;;;18.20;9.02;;;16.30;99.90;;;;;;5067736;28;20570;-72
2023/10/01 09:14:19;;;;;;;21.15;10.77;;;16.40;99.90;;;;;;5072305;28;20052;-73
2023/10/01 09:16:49;;;;;;;16.67;9.00;;;16.50;99.90;;;;;;5040837;28;20053;-73
2023/10/01 09:19:32;;;;;;;18.95;8.98;;;16.60;99.90;;;;;;5074350;28;20074;-73
2023/10/01 09:22:22;;;;;;;16.95;9.30;;;16.70;99.90;;;;;;5059095;28;20059;-73
2023/10/01 09:25:01;;;;;;;16.38;9.77;;;16.80;99.90;;;;;;5062057;28;20057;-72
2023/10/01 09:27:31;;;;;;;15.65;8.65;;;17.00;99.90;;;;;;5059188;28;20098;-73
2023/10/01 09:30:26;;;;;;;17.13;9.60;;;17.10;99.90;;;;;;5069538;28;20601;-73
2023/10/01 09:32:54;;;;;;;18.65;9.07;;;17.20;99.90;;;;;;5068746;28;20089;-73
2023/10/01 09:35:30;;;;;;;14.30;8.73;;;17.30;99.90;;;;;;5070017;28;20107;-73
2023/10/01 09:38:12;;;;;;;18.42;9.43;;;17.50;99.90;;;;;;5072835;28;20044;-73
2023/10/01 09:40:43;;;;;;;16.42;9.05;;;17.60;99.90;;;;;;5075560;28;20428;-73
2023/10/01 09:43:24;;;;;;;20.52;9.60;;;17.60;99.90;;;;;;5072973;28;20139;-73
2023/10/01 09:45:51;;;;;;;21.30;9.27;;;17.80;99.90;;;;;;5065288;28;20050;-73
2023/10/01 09:48:34;;;;;;;17.02;9.20;;;17.90;99.90;;;;;;5070282;28;20309;-73
2023/10/01 09:51:08;;;;;;;16.60;8.70;;;18.00;99.90;;;;;;5071670;28;20584;-73
2023/10/01 09:53:44;;;;;;;13.75;8.02;;;18.10;99.90;;;;;;5062483;28;20045;-73
2023/10/01 09:56:30;;;;;;;16.35;9.43;;;18.10;99.90;;;;;;5074193;28;20059;-74
2023/10/01 09:59:01;;;;;;;19.20;10.05;;;18.10;99.90;;;;;;5049000;28;20048;-74
2023/10/01 10:01:30;;;;;;;17.30;9.48;;;18.20;99.90;;;;;;5057055;28;20595;-73
2023/10/01 10:04:04;;;;;;;17.52;8.35;;;18.20;99.90;;;;;;5071947;28;20570;-73
2023/10/01 10:06:31;;;;;;;18.83;9.57;;;18.30;99.90;;;;;;5067268;28;20415;-74
2023/10/01 10:09:06;;;;;;;16.98;9.00;;;18.30;99.90;;;;;;5067100;28;20041;-73
2023/10/01 10:11:44;;;;;;;19.17;9.15;;;18.30;99.90;;;;;;5069919;28;20072;-73
2023/10/01 10:14:27;;;;;;;18.58;9.02;;;18.30;99.90;;;;;;5080907;28;20045;-73
2023/10/01 10:23:52;;;;;;;16.85;8.88;;;18.30;99.90;;;;;;5070850;28;20594;-73
2023/10/01 10:26:13;;;;;;;18.02;9.15;;;18.40;99.90;;;;;;5069939;28;20384;-73
2023/10/01 10:28:55;;;;;;;16.55;8.98;;;18.50;99.90;;;;;;5069319;28;20378;-73
2023/10/01 10:31:36;;;;;;;19.95;9.15;;;18.50;99.90;;;;;;5067139;28;20064;-73
2023/10/01 10:34:26;;;;;;;15.93;8.82;;;18.60;99.90;;;;;;5072423;28;20923;-73
2023/10/01 10:36:55;;;;;;;16.65;8.75;;;18.70;99.90;;;;;;5049535;28;20123;-73
2023/10/01 10:39:49;;;;;;;17.75;9.13;;;18.70;99.90;;;;;;5058033;28;20068;-73
2023/10/01 10:42:28;;;;;;;14.48;8.20;;;18.80;99.90;;;;;;5071522;28;20526;-73
2023/10/01 10:45:21;;;;;;;19.25;9.23;;;19.00;99.90;;;;;;5054649;28;20044;-72
2023/10/01 10:48:00;;;;;;;16.00;8.75;;;19.20;99.90;;;;;;5077093;28;20044;-73
2023/10/01 10:50:39;;;;;;;16.23;9.20;;;19.30;99.90;;;;;;5071694;28;20036;-73
2023/10/01 10:53:15;;;;;;;16.75;8.48;;;19.40;99.90;;;;;;5076980;28;20051;-73
2023/10/01 10:56:08;;;;;;;14.35;8.68;;;19.40;99.90;;;;;;5070849;28;20052;-73
2023/10/01 10:58:42;;;;;;;19.38;9.00;;;19.40;99.90;;;;;;5065067;28;20044;-73
2023/10/01 11:03:47;;;;;;;18.17;9.25;;;19.30;99.90;;;;;;5070467;28;20068;-73
2023/10/01 11:06:21;;;;;;;15.20;9.07;;;19.20;99.90;;;;;;5067979;28;20040;-74
2023/10/01 11:08:54;;;;;;;18.48;9.00;;;19.20;99.90;;;;;;5068997;28;20106;-73
2023/10/01 11:11:39;;;;;;;17.90;9.10;;;19.10;99.90;;;;;;5075989;28;20056;-74
2023/10/01 11:14:12;;;;;;;16.30;9.40;;;19.10;99.90;;;;;;5069575;28;20159;-73
2023/10/01 11:16:40;;;;;;;17.55;9.00;;;19.00;99.90;;;;;;5058842;28;20082;-73
2023/10/01 11:19:14;;;;;;;18.15;8.52;;;19.00;99.90;;;;;;5068643;28;20052;-73
2023/10/01 11:21:55;;;;;;;14.98;8.57;;;19.00;99.90;;;;;;5060209;28;20060;-73
2023/10/01 11:24:37;;;;;;;16.67;8.32;;;19.00;99.90;;;;;;5066873;28;20041;-74
2023/10/01 11:27:22;;;;;;;16.77;8.55;;;19.00;99.90;;;;;;5075941;28;20060;-73
2023/10/01 11:30:20;;;;;;;16.33;9.07;;;19.00;99.90;;;;;;5075574;28;20153;-73
2023/10/01 11:33:29;;;;;;;19.95;9.05;;;19.00;99.90;;;;;;5071696;28;20059;-73
2023/10/01 11:36:06;;;;;;;18.35;9.18;;;19.10;99.90;;;;;;5074161;28;20067;-71
2023/10/01 11:38:33;;;;;;;16.45;8.68;;;19.10;99.90;;;;;;5076231;28;20051;-73
2023/10/01 11:41:07;;;;;;;17.38;8.93;;;19.20;99.90;;;;;;5074713;28;20036;-73
2023/10/01 11:44:00;;;;;;;16.83;8.73;;;19.30;99.90;;;;;;5063978;28;20041;-73
2023/10/01 11:46:32;;;;;;;18.42;9.13;;;19.30;99.90;;;;;;5065736;28;20048;-73
2023/10/01 11:49:10;;;;;;;;;;;19.40;99.90;;;;;;5055551;28;20109;-73
2023/10/01 11:54:20;;;;;;;17.08;9.32;;;19.40;99.90;;;;;;5068242;28;20105;-74
2023/10/01 11:57:07;;;;;;;14.82;8.25;;;19.50;99.90;;;;;;5065864;28;20048;-73
2023/10/01 11:59:36;;;;;;;15.93;9.15;;;19.50;99.90;;;;;;5062365;28;20075;-73
2023/10/01 12:02:20;;;;;;;17.20;8.80;;;19.60;99.90;;;;;;5071292;28;20056;-73
2023/10/01 12:05:00;;;;;;;15.18;8.80;;;19.70;99.90;;;;;;5065903;28;20689;-73
2023/10/01 12:07:32;;;;;;;17.58;8.38;;;19.80;99.90;;;;;;5067227;28;20500;-73
2023/10/01 12:10:04;;;;;;;18.52;8.32;;;19.90;99.90;;;;;;5071226;28;20044;-73
2023/10/01 12:12:39;;;;;;;15.85;8.63;;;19.90;99.90;;;;;;5069213;28;20132;-73
2023/10/01 12:17:54;;;;;;;18.85;8.55;;;20.10;99.90;;;;;;5067541;28;20044;-74
2023/10/01 12:20:23;;;;;;;14.18;8.50;;;20.20;99.90;;;;;;5075703;28;20129;-73
2023/10/01 12:25:53;;;;;;;16.02;8.10;;;20.20;99.90;;;;;;5074633;28;20041;-73
2023/10/01 12:28:29;;;;;;;14.15;8.43;;;20.20;99.90;;;;;;5077939;28;20048;-73
2023/10/01 12:31:08;;;;;;;19.67;8.35;;;20.20;99.90;;;;;;5068876;28;20049;-74
2023/10/01 12:33:43;;;;;;;14.55;7.57;;;20.20;99.90;;;;;;5075764;28;20052;-73
2023/10/01 12:39:16;;;;;;;16.97;8.23;;;20.30;99.90;;;;;;5057711;28;20053;-74
2023/10/01 12:42:04;;;;;;;19.77;8.20;;;20.30;99.90;;;;;;5067598;28;20586;-74
2023/10/01 12:44:32;;;;;;;16.58;8.13;;;20.30;99.90;;;;;;5060100;28;20045;-74
2023/10/01 12:47:03;;;;;;;16.48;7.65;;;20.30;99.90;;;;;;5072799;28;20409;-74
2023/10/01 12:49:33;;;;;;;14.23;7.85;;;20.40;99.90;;;;;;5056402;28;20036;-74
2023/10/01 12:52:09;;;;;;;14.35;8.02;;;20.50;99.90;;;;;;5074452;28;20037;-73
2023/10/01 12:54:38;;;;;;;18.10;7.70;;;20.50;99.90;;;;;;5075151;28;20045;-73
2023/10/01 12:57:18;;;;;;;13.18;7.53;;;20.60;99.90;;;;;;5061416;28;20048;-73
2023/10/01 12:59:46;;;;;;;11.98;6.45;;;20.60;99.90;;;;;;5066316;28;20055;-74
2023/10/01 13:07:46;;;;;;;16.95;7.22;;;20.80;99.90;;;;;;5066401;28;20049;-73
2023/10/01 13:10:12;;;;;;;14.82;7.55;;;20.80;99.90;;;;;;5064696;28;20164;-73
2023/10/01 13:12:49;;;;;;;16.40;7.90;;;21.00;99.90;;;;;;5071211;28;20267;-73
2023/10/01 13:15:15;;;;;;;15.10;6.85;;;21.10;99.90;;;;;;5075639;28;20203;-73
2023/10/01 13:17:44;;;;;;;14.07;7.45;;;21.40;99.90;;;;;;5070015;28;20068;-74
2023/10/01 13:20:26;;;;;;;15.20;7.30;;;21.50;99.90;;;;;;5068955;28;20068;-74
2023/10/01 13:22:53;;;;;;;12.40;6.72;;;21.60;99.90;;;;;;5065233;28;20084;-74
2023/10/01 13:25:20;;;;;;;12.00;6.53;;;21.70;99.90;;;;;;5071092;28;20511;-74
2023/10/01 13:27:50;;;;;;;11.80;6.40;;;21.70;99.90;;;;;;5073739;28;20048;-73
2023/10/01 13:30:20;;;;;;;13.30;6.65;;;21.70;99.90;;;;;;5072255;28;20072;-74
2023/10/01 13:35:56;;;;;;;13.75;6.70;;;21.80;99.90;;;;;;5060205;28;20137;-73
2023/10/01 14:11:06;;;;;;;14.68;7.15;;;21.80;99.90;;;;;;5068480;28;20052;-74
2023/10/01 14:13:35;;;;;;;11.77;6.65;;;21.80;99.90;;;;;;5060450;28;20037;-74
2023/10/01 14:19:13;;;;;;;17.33;7.80;;;21.90;99.90;;;;;;5070219;28;20109;-74
2023/10/01 14:21:40;;;;;;;15.02;7.78;;;22.00;99.90;;;;;;5069275;28;20069;-74
2023/10/01 14:24:23;;;;;;;13.55;7.18;;;21.90;99.90;;;;;;5078717;28;20040;-75
2023/10/01 14:26:50;;;;;;;13.15;7.40;;;21.90;99.90;;;;;;5077923;28;20083;-74
2023/10/01 14:29:22;;;;;;;13.63;7.68;;;21.80;99.90;;;;;;5078196;28;20094;-74
2023/10/01 14:31:52;;;;;;;;;;;21.70;99.90;;;;;;5075690;28;20139;-74
2023/10/01 14:34:20;;;;;;;12.38;7.10;;;21.60;99.90;;;;;;5070773;28;19968;-74
2023/10/01 14:36:47;;;;;;;13.88;7.07;;;21.60;99.90;;;;;;5056756;28;20051;-73
2023/10/01 14:39:13;;;;;;;14.18;7.43;;;21.60;99.90;;;;;;5076414;28;20052;-74
2023/10/01 14:41:45;;;;;;;12.98;7.07;;;21.50;99.90;;;;;;5054499;28;20076;-74
2023/10/01 14:44:13;;;;;;;14.48;7.20;;;21.50;99.90;;;;;;5073133;28;20033;-73
2023/10/01 14:46:47;;;;;;;12.75;7.65;;;21.40;99.90;;;;;;5078469;28;20553;-73